<?xml version="1.0" encoding="UTF-8" standalone="no" ?>
<gpx xmlns="http://www.topografix.com/GPX/1/1" xmlns:xsi="http://www.w3.org/2001/XMLSchema-instance" xsi:schemaLocation="http://www.topografix.com/GPX/1/1 http://www.topografix.com/GPX/1/1/gpx.xsd" version="1.1" creator="VisuGPX - https://www.visugpx.com">
  <metadata>
    <name>Parcours VTT Aglo 2021</name>
  </metadata>
  <trk>
    <name><![CDATA[Noir Cornillon Montclus]]></name>
    <extensions>
      <line xmlns="http://www.topografix.com/GPX/gpx_style/0/2">
        <color>000000</color>
        <width>4</width>
      </line>
    </extensions>
    <trkseg>
      <trkpt lat="44.21849" lon="4.48557">
        <ele>87</ele>
        <time>2021-07-04T13:06:34Z</time>
      </trkpt>
      <trkpt lat="44.21849" lon="4.48557">
        <ele>87</ele>
        <time>2021-07-04T13:06:34Z</time>
      </trkpt>
      <trkpt lat="44.21832" lon="4.48528">
        <ele>85</ele>
        <time>2021-07-04T13:06:40Z</time>
      </trkpt>
      <trkpt lat="44.22049" lon="4.48229">
        <ele>81</ele>
        <time>2021-07-04T13:07:51Z</time>
      </trkpt>
      <trkpt lat="44.22167" lon="4.48041">
        <ele>84</ele>
        <time>2021-07-04T13:08:33Z</time>
      </trkpt>
      <trkpt lat="44.22022" lon="4.47863">
        <ele>78</ele>
        <time>2021-07-04T13:09:18Z</time>
      </trkpt>
      <trkpt lat="44.21881" lon="4.47706">
        <ele>78</ele>
        <time>2021-07-04T13:10:01Z</time>
      </trkpt>
      <trkpt lat="44.21797" lon="4.47611">
        <ele>77</ele>
        <time>2021-07-04T13:10:26Z</time>
      </trkpt>
      <trkpt lat="44.21722" lon="4.47443">
        <ele>80</ele>
        <time>2021-07-04T13:10:59Z</time>
      </trkpt>
      <trkpt lat="44.21671" lon="4.47315">
        <ele>80</ele>
        <time>2021-07-04T13:11:23Z</time>
      </trkpt>
      <trkpt lat="44.21643" lon="4.47228">
        <ele>79</ele>
        <time>2021-07-04T13:11:39Z</time>
      </trkpt>
      <trkpt lat="44.21649" lon="4.4706">
        <ele>79</ele>
        <time>2021-07-04T13:12:08Z</time>
      </trkpt>
      <trkpt lat="44.21571" lon="4.4691">
        <ele>79</ele>
        <time>2021-07-04T13:12:39Z</time>
      </trkpt>
      <trkpt lat="44.21534" lon="4.468">
        <ele>79</ele>
        <time>2021-07-04T13:12:59Z</time>
      </trkpt>
      <trkpt lat="44.2143" lon="4.46738">
        <ele>82</ele>
        <time>2021-07-04T13:13:25Z</time>
      </trkpt>
      <trkpt lat="44.21451" lon="4.46684">
        <ele>83</ele>
        <time>2021-07-04T13:13:36Z</time>
      </trkpt>
      <trkpt lat="44.21426" lon="4.46545">
        <ele>93</ele>
        <time>2021-07-04T13:14:00Z</time>
      </trkpt>
      <trkpt lat="44.21395" lon="4.46384">
        <ele>104</ele>
        <time>2021-07-04T13:14:27Z</time>
      </trkpt>
      <trkpt lat="44.2139" lon="4.46049">
        <ele>128</ele>
        <time>2021-07-04T13:15:24Z</time>
      </trkpt>
      <trkpt lat="44.21386" lon="4.4575">
        <ele>149</ele>
        <time>2021-07-04T13:16:14Z</time>
      </trkpt>
      <trkpt lat="44.21487" lon="4.45705">
        <ele>157</ele>
        <time>2021-07-04T13:16:38Z</time>
      </trkpt>
      <trkpt lat="44.21584" lon="4.45443">
        <ele>174</ele>
        <time>2021-07-04T13:17:28Z</time>
      </trkpt>
      <trkpt lat="44.21536" lon="4.45358">
        <ele>180</ele>
        <time>2021-07-04T13:17:46Z</time>
      </trkpt>
      <trkpt lat="44.21478" lon="4.45247">
        <ele>190</ele>
        <time>2021-07-04T13:18:09Z</time>
      </trkpt>
      <trkpt lat="44.21457" lon="4.45162">
        <ele>196</ele>
        <time>2021-07-04T13:18:24Z</time>
      </trkpt>
      <trkpt lat="44.21457" lon="4.45062">
        <ele>210</ele>
        <time>2021-07-04T13:18:41Z</time>
      </trkpt>
      <trkpt lat="44.21361" lon="4.44953">
        <ele>219</ele>
        <time>2021-07-04T13:19:10Z</time>
      </trkpt>
      <trkpt lat="44.21392" lon="4.44742">
        <ele>242</ele>
        <time>2021-07-04T13:19:46Z</time>
      </trkpt>
      <trkpt lat="44.2135" lon="4.44658">
        <ele>244</ele>
        <time>2021-07-04T13:20:03Z</time>
      </trkpt>
      <trkpt lat="44.21373" lon="4.44583">
        <ele>242</ele>
        <time>2021-07-04T13:20:16Z</time>
      </trkpt>
      <trkpt lat="44.21426" lon="4.44535">
        <ele>244</ele>
        <time>2021-07-04T13:20:31Z</time>
      </trkpt>
      <trkpt lat="44.21563" lon="4.44263">
        <ele>253</ele>
        <time>2021-07-04T13:21:27Z</time>
      </trkpt>
      <trkpt lat="44.21574" lon="4.4421">
        <ele>255</ele>
        <time>2021-07-04T13:21:36Z</time>
      </trkpt>
      <trkpt lat="44.21669" lon="4.44071">
        <ele>258</ele>
        <time>2021-07-04T13:22:08Z</time>
      </trkpt>
      <trkpt lat="44.21646" lon="4.44022">
        <ele>256</ele>
        <time>2021-07-04T13:22:18Z</time>
      </trkpt>
      <trkpt lat="44.21668" lon="4.43852">
        <ele>259</ele>
        <time>2021-07-04T13:22:47Z</time>
      </trkpt>
      <trkpt lat="44.21546" lon="4.43625">
        <ele>272</ele>
        <time>2021-07-04T13:23:34Z</time>
      </trkpt>
      <trkpt lat="44.21393" lon="4.43359">
        <ele>282</ele>
        <time>2021-07-04T13:24:31Z</time>
      </trkpt>
      <trkpt lat="44.213" lon="4.43269">
        <ele>280</ele>
        <time>2021-07-04T13:24:58Z</time>
      </trkpt>
      <trkpt lat="44.21099" lon="4.43181">
        <ele>310</ele>
        <time>2021-07-04T13:25:47Z</time>
      </trkpt>
      <trkpt lat="44.21061" lon="4.43162">
        <ele>311</ele>
        <time>2021-07-04T13:25:57Z</time>
      </trkpt>
      <trkpt lat="44.20942" lon="4.43214">
        <ele>316</ele>
        <time>2021-07-04T13:26:26Z</time>
      </trkpt>
      <trkpt lat="44.20914" lon="4.43326">
        <ele>328</ele>
        <time>2021-07-04T13:26:46Z</time>
      </trkpt>
      <trkpt lat="44.20735" lon="4.43424">
        <ele>325</ele>
        <time>2021-07-04T13:27:30Z</time>
      </trkpt>
      <trkpt lat="44.20577" lon="4.43432">
        <ele>328</ele>
        <time>2021-07-04T13:28:07Z</time>
      </trkpt>
      <trkpt lat="44.20479" lon="4.43135">
        <ele>314</ele>
        <time>2021-07-04T13:29:02Z</time>
      </trkpt>
      <trkpt lat="44.20367" lon="4.42806">
        <ele>314</ele>
        <time>2021-07-04T13:30:03Z</time>
      </trkpt>
      <trkpt lat="44.20369" lon="4.42739">
        <ele>311</ele>
        <time>2021-07-04T13:30:14Z</time>
      </trkpt>
      <trkpt lat="44.20438" lon="4.42602">
        <ele>306</ele>
        <time>2021-07-04T13:30:42Z</time>
      </trkpt>
      <trkpt lat="44.20436" lon="4.42544">
        <ele>304</ele>
        <time>2021-07-04T13:30:52Z</time>
      </trkpt>
      <trkpt lat="44.2054" lon="4.42279">
        <ele>299</ele>
        <time>2021-07-04T13:31:43Z</time>
      </trkpt>
      <trkpt lat="44.20563" lon="4.42052">
        <ele>299</ele>
        <time>2021-07-04T13:32:21Z</time>
      </trkpt>
      <trkpt lat="44.20738" lon="4.41733">
        <ele>303</ele>
        <time>2021-07-04T13:33:28Z</time>
      </trkpt>
      <trkpt lat="44.20833" lon="4.41556">
        <ele>307</ele>
        <time>2021-07-04T13:34:05Z</time>
      </trkpt>
      <trkpt lat="44.20971" lon="4.41488">
        <ele>310</ele>
        <time>2021-07-04T13:34:39Z</time>
      </trkpt>
      <trkpt lat="44.21135" lon="4.41298">
        <ele>304</ele>
        <time>2021-07-04T13:35:29Z</time>
      </trkpt>
      <trkpt lat="44.213" lon="4.41176">
        <ele>293</ele>
        <time>2021-07-04T13:36:13Z</time>
      </trkpt>
      <trkpt lat="44.21521" lon="4.41106">
        <ele>300</ele>
        <time>2021-07-04T13:37:06Z</time>
      </trkpt>
      <trkpt lat="44.21877" lon="4.41036">
        <ele>312</ele>
        <time>2021-07-04T13:38:30Z</time>
      </trkpt>
      <trkpt lat="44.21849" lon="4.40896">
        <ele>307</ele>
        <time>2021-07-04T13:38:54Z</time>
      </trkpt>
      <trkpt lat="44.21856" lon="4.40743">
        <ele>305</ele>
        <time>2021-07-04T13:39:20Z</time>
      </trkpt>
      <trkpt lat="44.21949" lon="4.40593">
        <ele>299</ele>
        <time>2021-07-04T13:39:53Z</time>
      </trkpt>
      <trkpt lat="44.2199" lon="4.4036">
        <ele>303</ele>
        <time>2021-07-04T13:40:33Z</time>
      </trkpt>
      <trkpt lat="44.22085" lon="4.40245">
        <ele>304</ele>
        <time>2021-07-04T13:41:02Z</time>
      </trkpt>
      <trkpt lat="44.22129" lon="4.40117">
        <ele>305</ele>
        <time>2021-07-04T13:41:26Z</time>
      </trkpt>
      <trkpt lat="44.22267" lon="4.40065">
        <ele>304</ele>
        <time>2021-07-04T13:42:00Z</time>
      </trkpt>
      <trkpt lat="44.22338" lon="4.39766">
        <ele>300</ele>
        <time>2021-07-04T13:42:52Z</time>
      </trkpt>
      <trkpt lat="44.22488" lon="4.39499">
        <ele>287</ele>
        <time>2021-07-04T13:43:49Z</time>
      </trkpt>
      <trkpt lat="44.22812" lon="4.39123">
        <ele>286</ele>
        <time>2021-07-04T13:45:27Z</time>
      </trkpt>
      <trkpt lat="44.22922" lon="4.38839">
        <ele>310</ele>
        <time>2021-07-04T13:46:21Z</time>
      </trkpt>
      <trkpt lat="44.23052" lon="4.38742">
        <ele>311</ele>
        <time>2021-07-04T13:46:56Z</time>
      </trkpt>
      <trkpt lat="44.23106" lon="4.38616">
        <ele>308</ele>
        <time>2021-07-04T13:47:20Z</time>
      </trkpt>
      <trkpt lat="44.23221" lon="4.38645">
        <ele>309</ele>
        <time>2021-07-04T13:47:48Z</time>
      </trkpt>
      <trkpt lat="44.23288" lon="4.38568">
        <ele>309</ele>
        <time>2021-07-04T13:48:08Z</time>
      </trkpt>
      <trkpt lat="44.23461" lon="4.38537">
        <ele>306</ele>
        <time>2021-07-04T13:48:49Z</time>
      </trkpt>
      <trkpt lat="44.23489" lon="4.38458">
        <ele>304</ele>
        <time>2021-07-04T13:49:03Z</time>
      </trkpt>
      <trkpt lat="44.23603" lon="4.38459">
        <ele>305</ele>
        <time>2021-07-04T13:49:30Z</time>
      </trkpt>
      <trkpt lat="44.23726" lon="4.38536">
        <ele>301</ele>
        <time>2021-07-04T13:50:02Z</time>
      </trkpt>
      <trkpt lat="44.23781" lon="4.38625">
        <ele>298</ele>
        <time>2021-07-04T13:50:21Z</time>
      </trkpt>
      <trkpt lat="44.23779" lon="4.38941">
        <ele>293</ele>
        <time>2021-07-04T13:51:14Z</time>
      </trkpt>
      <trkpt lat="44.23807" lon="4.3906">
        <ele>293</ele>
        <time>2021-07-04T13:51:35Z</time>
      </trkpt>
      <trkpt lat="44.23938" lon="4.39231">
        <ele>276</ele>
        <time>2021-07-04T13:52:17Z</time>
      </trkpt>
      <trkpt lat="44.24023" lon="4.39337">
        <ele>273</ele>
        <time>2021-07-04T13:52:44Z</time>
      </trkpt>
      <trkpt lat="44.24027" lon="4.39466">
        <ele>284</ele>
        <time>2021-07-04T13:53:05Z</time>
      </trkpt>
      <trkpt lat="44.24199" lon="4.3987">
        <ele>299</ele>
        <time>2021-07-04T13:54:24Z</time>
      </trkpt>
      <trkpt lat="44.24324" lon="4.40031">
        <ele>302</ele>
        <time>2021-07-04T13:55:04Z</time>
      </trkpt>
      <trkpt lat="44.24604" lon="4.4015">
        <ele>296</ele>
        <time>2021-07-04T13:56:12Z</time>
      </trkpt>
      <trkpt lat="44.24833" lon="4.40283">
        <ele>289</ele>
        <time>2021-07-04T13:57:10Z</time>
      </trkpt>
      <trkpt lat="44.25012" lon="4.40311">
        <ele>293</ele>
        <time>2021-07-04T13:57:52Z</time>
      </trkpt>
      <trkpt lat="44.25139" lon="4.40253">
        <ele>290</ele>
        <time>2021-07-04T13:58:23Z</time>
      </trkpt>
      <trkpt lat="44.25111" lon="4.40088">
        <ele>276</ele>
        <time>2021-07-04T13:58:51Z</time>
      </trkpt>
      <trkpt lat="44.25292" lon="4.39892">
        <ele>271</ele>
        <time>2021-07-04T13:59:45Z</time>
      </trkpt>
      <trkpt lat="44.25431" lon="4.39987">
        <ele>290</ele>
        <time>2021-07-04T14:00:21Z</time>
      </trkpt>
      <trkpt lat="44.25719" lon="4.398">
        <ele>294</ele>
        <time>2021-07-04T14:01:35Z</time>
      </trkpt>
      <trkpt lat="44.25874" lon="4.40018">
        <ele>259</ele>
        <time>2021-07-04T14:02:27Z</time>
      </trkpt>
      <trkpt lat="44.26232" lon="4.40154">
        <ele>191</ele>
        <time>2021-07-04T14:03:53Z</time>
      </trkpt>
      <trkpt lat="44.26292" lon="4.40265">
        <ele>201</ele>
        <time>2021-07-04T14:04:17Z</time>
      </trkpt>
      <trkpt lat="44.26169" lon="4.40492">
        <ele>196</ele>
        <time>2021-07-04T14:05:04Z</time>
      </trkpt>
      <trkpt lat="44.26176" lon="4.40681">
        <ele>179</ele>
        <time>2021-07-04T14:05:36Z</time>
      </trkpt>
      <trkpt lat="44.263" lon="4.40831">
        <ele>172</ele>
        <time>2021-07-04T14:06:14Z</time>
      </trkpt>
      <trkpt lat="44.26309" lon="4.40981">
        <ele>168</ele>
        <time>2021-07-04T14:06:39Z</time>
      </trkpt>
      <trkpt lat="44.26235" lon="4.41093">
        <ele>160</ele>
        <time>2021-07-04T14:07:05Z</time>
      </trkpt>
      <trkpt lat="44.26255" lon="4.41249">
        <ele>145</ele>
        <time>2021-07-04T14:07:31Z</time>
      </trkpt>
      <trkpt lat="44.26172" lon="4.41513">
        <ele>124</ele>
        <time>2021-07-04T14:08:19Z</time>
      </trkpt>
      <trkpt lat="44.26159" lon="4.4173">
        <ele>102</ele>
        <time>2021-07-04T14:08:56Z</time>
      </trkpt>
      <trkpt lat="44.26257" lon="4.41839">
        <ele>95</ele>
        <time>2021-07-04T14:09:25Z</time>
      </trkpt>
      <trkpt lat="44.26234" lon="4.41984">
        <ele>89</ele>
        <time>2021-07-04T14:09:50Z</time>
      </trkpt>
      <trkpt lat="44.26432" lon="4.42079">
        <ele>90</ele>
        <time>2021-07-04T14:10:39Z</time>
      </trkpt>
      <trkpt lat="44.26456" lon="4.42191">
        <ele>91</ele>
        <time>2021-07-04T14:10:58Z</time>
      </trkpt>
      <trkpt lat="44.26538" lon="4.4236">
        <ele>92</ele>
        <time>2021-07-04T14:11:33Z</time>
      </trkpt>
      <trkpt lat="44.2658" lon="4.42508">
        <ele>98</ele>
        <time>2021-07-04T14:11:59Z</time>
      </trkpt>
      <trkpt lat="44.26606" lon="4.42605">
        <ele>102</ele>
        <time>2021-07-04T14:12:17Z</time>
      </trkpt>
      <trkpt lat="44.26638" lon="4.42658">
        <ele>101</ele>
        <time>2021-07-04T14:12:28Z</time>
      </trkpt>
      <trkpt lat="44.26676" lon="4.42691">
        <ele>97</ele>
        <time>2021-07-04T14:12:39Z</time>
      </trkpt>
      <trkpt lat="44.26705" lon="4.42764">
        <ele>99</ele>
        <time>2021-07-04T14:12:53Z</time>
      </trkpt>
      <trkpt lat="44.2675" lon="4.42923">
        <ele>109</ele>
        <time>2021-07-04T14:13:21Z</time>
      </trkpt>
      <trkpt lat="44.26746" lon="4.42993">
        <ele>117</ele>
        <time>2021-07-04T14:13:33Z</time>
      </trkpt>
      <trkpt lat="44.26814" lon="4.43031">
        <ele>118</ele>
        <time>2021-07-04T14:13:50Z</time>
      </trkpt>
      <trkpt lat="44.26737" lon="4.43105">
        <ele>130</ele>
        <time>2021-07-04T14:14:12Z</time>
      </trkpt>
      <trkpt lat="44.26795" lon="4.43252">
        <ele>144</ele>
        <time>2021-07-04T14:14:40Z</time>
      </trkpt>
      <trkpt lat="44.26742" lon="4.43228">
        <ele>149</ele>
        <time>2021-07-04T14:14:53Z</time>
      </trkpt>
      <trkpt lat="44.26802" lon="4.43405">
        <ele>161</ele>
        <time>2021-07-04T14:15:26Z</time>
      </trkpt>
      <trkpt lat="44.26662" lon="4.43588">
        <ele>180</ele>
        <time>2021-07-04T14:16:10Z</time>
      </trkpt>
      <trkpt lat="44.26687" lon="4.43607">
        <ele>179</ele>
        <time>2021-07-04T14:16:17Z</time>
      </trkpt>
      <trkpt lat="44.26636" lon="4.43845">
        <ele>187</ele>
        <time>2021-07-04T14:16:59Z</time>
      </trkpt>
      <trkpt lat="44.26595" lon="4.43853">
        <ele>188</ele>
        <time>2021-07-04T14:17:08Z</time>
      </trkpt>
      <trkpt lat="44.26565" lon="4.43908">
        <ele>188</ele>
        <time>2021-07-04T14:17:20Z</time>
      </trkpt>
      <trkpt lat="44.26508" lon="4.4398">
        <ele>186</ele>
        <time>2021-07-04T14:17:38Z</time>
      </trkpt>
      <trkpt lat="44.26569" lon="4.44028">
        <ele>197</ele>
        <time>2021-07-04T14:17:54Z</time>
      </trkpt>
      <trkpt lat="44.26546" lon="4.44093">
        <ele>200</ele>
        <time>2021-07-04T14:18:06Z</time>
      </trkpt>
      <trkpt lat="44.26546" lon="4.44284">
        <ele>204</ele>
        <time>2021-07-04T14:18:38Z</time>
      </trkpt>
      <trkpt lat="44.26502" lon="4.44461">
        <ele>205</ele>
        <time>2021-07-04T14:19:10Z</time>
      </trkpt>
      <trkpt lat="44.26482" lon="4.44411">
        <ele>198</ele>
        <time>2021-07-04T14:19:19Z</time>
      </trkpt>
      <trkpt lat="44.2644" lon="4.44384">
        <ele>190</ele>
        <time>2021-07-04T14:19:30Z</time>
      </trkpt>
      <trkpt lat="44.26396" lon="4.4426">
        <ele>179</ele>
        <time>2021-07-04T14:19:53Z</time>
      </trkpt>
      <trkpt lat="44.26307" lon="4.44207">
        <ele>173</ele>
        <time>2021-07-04T14:20:16Z</time>
      </trkpt>
      <trkpt lat="44.26302" lon="4.44302">
        <ele>170</ele>
        <time>2021-07-04T14:20:32Z</time>
      </trkpt>
      <trkpt lat="44.26273" lon="4.44448">
        <ele>168</ele>
        <time>2021-07-04T14:20:57Z</time>
      </trkpt>
      <trkpt lat="44.26295" lon="4.44507">
        <ele>173</ele>
        <time>2021-07-04T14:21:08Z</time>
      </trkpt>
      <trkpt lat="44.26252" lon="4.44634">
        <ele>174</ele>
        <time>2021-07-04T14:21:32Z</time>
      </trkpt>
      <trkpt lat="44.26232" lon="4.44663">
        <ele>171</ele>
        <time>2021-07-04T14:21:38Z</time>
      </trkpt>
      <trkpt lat="44.26245" lon="4.44721">
        <ele>172</ele>
        <time>2021-07-04T14:21:48Z</time>
      </trkpt>
      <trkpt lat="44.26249" lon="4.44799">
        <ele>169</ele>
        <time>2021-07-04T14:22:02Z</time>
      </trkpt>
      <trkpt lat="44.26321" lon="4.44908">
        <ele>170</ele>
        <time>2021-07-04T14:22:26Z</time>
      </trkpt>
      <trkpt lat="44.26233" lon="4.44879">
        <ele>163</ele>
        <time>2021-07-04T14:22:47Z</time>
      </trkpt>
      <trkpt lat="44.26206" lon="4.44934">
        <ele>163</ele>
        <time>2021-07-04T14:22:59Z</time>
      </trkpt>
      <trkpt lat="44.26184" lon="4.44896">
        <ele>161</ele>
        <time>2021-07-04T14:23:07Z</time>
      </trkpt>
      <trkpt lat="44.2617" lon="4.44997">
        <ele>166</ele>
        <time>2021-07-04T14:23:24Z</time>
      </trkpt>
      <trkpt lat="44.26113" lon="4.4504">
        <ele>165</ele>
        <time>2021-07-04T14:23:39Z</time>
      </trkpt>
      <trkpt lat="44.26125" lon="4.45141">
        <ele>168</ele>
        <time>2021-07-04T14:23:56Z</time>
      </trkpt>
      <trkpt lat="44.26132" lon="4.45167">
        <ele>170</ele>
        <time>2021-07-04T14:24:01Z</time>
      </trkpt>
      <trkpt lat="44.26165" lon="4.45249">
        <ele>185</ele>
        <time>2021-07-04T14:24:17Z</time>
      </trkpt>
      <trkpt lat="44.26164" lon="4.4533">
        <ele>184</ele>
        <time>2021-07-04T14:24:30Z</time>
      </trkpt>
      <trkpt lat="44.26156" lon="4.4536">
        <ele>181</ele>
        <time>2021-07-04T14:24:35Z</time>
      </trkpt>
      <trkpt lat="44.26167" lon="4.45379">
        <ele>181</ele>
        <time>2021-07-04T14:24:40Z</time>
      </trkpt>
      <trkpt lat="44.26194" lon="4.45474">
        <ele>183</ele>
        <time>2021-07-04T14:24:57Z</time>
      </trkpt>
      <trkpt lat="44.26217" lon="4.45549">
        <ele>186</ele>
        <time>2021-07-04T14:25:10Z</time>
      </trkpt>
      <trkpt lat="44.26217" lon="4.45636">
        <ele>186</ele>
        <time>2021-07-04T14:25:25Z</time>
      </trkpt>
      <trkpt lat="44.26196" lon="4.45662">
        <ele>185</ele>
        <time>2021-07-04T14:25:31Z</time>
      </trkpt>
      <trkpt lat="44.26154" lon="4.45657">
        <ele>185</ele>
        <time>2021-07-04T14:25:41Z</time>
      </trkpt>
      <trkpt lat="44.26101" lon="4.45602">
        <ele>187</ele>
        <time>2021-07-04T14:25:57Z</time>
      </trkpt>
      <trkpt lat="44.26076" lon="4.45579">
        <ele>187</ele>
        <time>2021-07-04T14:26:04Z</time>
      </trkpt>
      <trkpt lat="44.25985" lon="4.45608">
        <ele>200</ele>
        <time>2021-07-04T14:26:25Z</time>
      </trkpt>
      <trkpt lat="44.25941" lon="4.4562">
        <ele>204</ele>
        <time>2021-07-04T14:26:36Z</time>
      </trkpt>
      <trkpt lat="44.25908" lon="4.45656">
        <ele>209</ele>
        <time>2021-07-04T14:26:46Z</time>
      </trkpt>
      <trkpt lat="44.25895" lon="4.45704">
        <ele>212</ele>
        <time>2021-07-04T14:26:54Z</time>
      </trkpt>
      <trkpt lat="44.2585" lon="4.45735">
        <ele>217</ele>
        <time>2021-07-04T14:27:06Z</time>
      </trkpt>
      <trkpt lat="44.25825" lon="4.45754">
        <ele>220</ele>
        <time>2021-07-04T14:27:13Z</time>
      </trkpt>
      <trkpt lat="44.25771" lon="4.4575">
        <ele>220</ele>
        <time>2021-07-04T14:27:25Z</time>
      </trkpt>
      <trkpt lat="44.25622" lon="4.45895">
        <ele>242</ele>
        <time>2021-07-04T14:28:08Z</time>
      </trkpt>
      <trkpt lat="44.25551" lon="4.45893">
        <ele>247</ele>
        <time>2021-07-04T14:28:24Z</time>
      </trkpt>
      <trkpt lat="44.25453" lon="4.46158">
        <ele>257</ele>
        <time>2021-07-04T14:29:14Z</time>
      </trkpt>
      <trkpt lat="44.25455" lon="4.46234">
        <ele>256</ele>
        <time>2021-07-04T14:29:27Z</time>
      </trkpt>
      <trkpt lat="44.25427" lon="4.46304">
        <ele>258</ele>
        <time>2021-07-04T14:29:40Z</time>
      </trkpt>
      <trkpt lat="44.25324" lon="4.46355">
        <ele>266</ele>
        <time>2021-07-04T14:30:06Z</time>
      </trkpt>
      <trkpt lat="44.25306" lon="4.46404">
        <ele>270</ele>
        <time>2021-07-04T14:30:15Z</time>
      </trkpt>
      <trkpt lat="44.25262" lon="4.46421">
        <ele>273</ele>
        <time>2021-07-04T14:30:26Z</time>
      </trkpt>
      <trkpt lat="44.25235" lon="4.46499">
        <ele>275</ele>
        <time>2021-07-04T14:30:40Z</time>
      </trkpt>
      <trkpt lat="44.25211" lon="4.46606">
        <ele>271</ele>
        <time>2021-07-04T14:30:59Z</time>
      </trkpt>
      <trkpt lat="44.252" lon="4.46765">
        <ele>267</ele>
        <time>2021-07-04T14:31:26Z</time>
      </trkpt>
      <trkpt lat="44.253" lon="4.46781">
        <ele>267</ele>
        <time>2021-07-04T14:31:49Z</time>
      </trkpt>
      <trkpt lat="44.25323" lon="4.46931">
        <ele>257</ele>
        <time>2021-07-04T14:32:15Z</time>
      </trkpt>
      <trkpt lat="44.25448" lon="4.47073">
        <ele>244</ele>
        <time>2021-07-04T14:32:52Z</time>
      </trkpt>
      <trkpt lat="44.25565" lon="4.47228">
        <ele>226</ele>
        <time>2021-07-04T14:33:30Z</time>
      </trkpt>
      <trkpt lat="44.25607" lon="4.47243">
        <ele>225</ele>
        <time>2021-07-04T14:33:40Z</time>
      </trkpt>
      <trkpt lat="44.25599" lon="4.47302">
        <ele>221</ele>
        <time>2021-07-04T14:33:50Z</time>
      </trkpt>
      <trkpt lat="44.257" lon="4.47354">
        <ele>224</ele>
        <time>2021-07-04T14:34:15Z</time>
      </trkpt>
      <trkpt lat="44.25705" lon="4.4741">
        <ele>229</ele>
        <time>2021-07-04T14:34:25Z</time>
      </trkpt>
      <trkpt lat="44.25727" lon="4.47485">
        <ele>237</ele>
        <time>2021-07-04T14:34:38Z</time>
      </trkpt>
      <trkpt lat="44.25644" lon="4.47445">
        <ele>233</ele>
        <time>2021-07-04T14:34:59Z</time>
      </trkpt>
      <trkpt lat="44.25572" lon="4.47558">
        <ele>247</ele>
        <time>2021-07-04T14:35:24Z</time>
      </trkpt>
      <trkpt lat="44.25486" lon="4.47669">
        <ele>254</ele>
        <time>2021-07-04T14:35:52Z</time>
      </trkpt>
      <trkpt lat="44.25355" lon="4.47681">
        <ele>260</ele>
        <time>2021-07-04T14:36:22Z</time>
      </trkpt>
      <trkpt lat="44.2526" lon="4.47612">
        <ele>267</ele>
        <time>2021-07-04T14:36:47Z</time>
      </trkpt>
      <trkpt lat="44.2521" lon="4.47582">
        <ele>270</ele>
        <time>2021-07-04T14:37:00Z</time>
      </trkpt>
      <trkpt lat="44.25216" lon="4.47514">
        <ele>268</ele>
        <time>2021-07-04T14:37:11Z</time>
      </trkpt>
      <trkpt lat="44.25175" lon="4.47467">
        <ele>270</ele>
        <time>2021-07-04T14:37:24Z</time>
      </trkpt>
      <trkpt lat="44.25118" lon="4.47386">
        <ele>267</ele>
        <time>2021-07-04T14:37:43Z</time>
      </trkpt>
      <trkpt lat="44.25041" lon="4.47357">
        <ele>272</ele>
        <time>2021-07-04T14:38:01Z</time>
      </trkpt>
      <trkpt lat="44.24952" lon="4.47299">
        <ele>274</ele>
        <time>2021-07-04T14:38:24Z</time>
      </trkpt>
      <trkpt lat="44.24798" lon="4.47235">
        <ele>279</ele>
        <time>2021-07-04T14:39:02Z</time>
      </trkpt>
      <trkpt lat="44.24684" lon="4.47099">
        <ele>268</ele>
        <time>2021-07-04T14:39:37Z</time>
      </trkpt>
      <trkpt lat="44.24578" lon="4.4708">
        <ele>255</ele>
        <time>2021-07-04T14:40:02Z</time>
      </trkpt>
      <trkpt lat="44.24523" lon="4.47173">
        <ele>241</ele>
        <time>2021-07-04T14:40:22Z</time>
      </trkpt>
      <trkpt lat="44.24444" lon="4.47208">
        <ele>230</ele>
        <time>2021-07-04T14:40:41Z</time>
      </trkpt>
      <trkpt lat="44.24342" lon="4.47105">
        <ele>206</ele>
        <time>2021-07-04T14:41:11Z</time>
      </trkpt>
      <trkpt lat="44.24296" lon="4.46974">
        <ele>182</ele>
        <time>2021-07-04T14:41:35Z</time>
      </trkpt>
      <trkpt lat="44.24297" lon="4.46909">
        <ele>174</ele>
        <time>2021-07-04T14:41:46Z</time>
      </trkpt>
      <trkpt lat="44.24264" lon="4.46927">
        <ele>168</ele>
        <time>2021-07-04T14:41:54Z</time>
      </trkpt>
      <trkpt lat="44.24291" lon="4.4684">
        <ele>162</ele>
        <time>2021-07-04T14:42:10Z</time>
      </trkpt>
      <trkpt lat="44.24232" lon="4.46774">
        <ele>144</ele>
        <time>2021-07-04T14:42:28Z</time>
      </trkpt>
      <trkpt lat="44.24213" lon="4.46727">
        <ele>138</ele>
        <time>2021-07-04T14:42:37Z</time>
      </trkpt>
      <trkpt lat="44.24162" lon="4.46669">
        <ele>132</ele>
        <time>2021-07-04T14:42:52Z</time>
      </trkpt>
      <trkpt lat="44.24106" lon="4.46625">
        <ele>130</ele>
        <time>2021-07-04T14:43:07Z</time>
      </trkpt>
      <trkpt lat="44.24102" lon="4.46544">
        <ele>126</ele>
        <time>2021-07-04T14:43:21Z</time>
      </trkpt>
      <trkpt lat="44.24067" lon="4.46514">
        <ele>126</ele>
        <time>2021-07-04T14:43:30Z</time>
      </trkpt>
      <trkpt lat="44.24077" lon="4.46398">
        <ele>121</ele>
        <time>2021-07-04T14:43:50Z</time>
      </trkpt>
      <trkpt lat="44.24062" lon="4.46348">
        <ele>120</ele>
        <time>2021-07-04T14:43:59Z</time>
      </trkpt>
      <trkpt lat="44.241" lon="4.46116">
        <ele>111</ele>
        <time>2021-07-04T14:44:39Z</time>
      </trkpt>
      <trkpt lat="44.2408" lon="4.46082">
        <ele>111</ele>
        <time>2021-07-04T14:44:46Z</time>
      </trkpt>
      <trkpt lat="44.2407" lon="4.46031">
        <ele>107</ele>
        <time>2021-07-04T14:44:55Z</time>
      </trkpt>
      <trkpt lat="44.2405" lon="4.46008">
        <ele>106</ele>
        <time>2021-07-04T14:45:01Z</time>
      </trkpt>
      <trkpt lat="44.24106" lon="4.4588">
        <ele>102</ele>
        <time>2021-07-04T14:45:26Z</time>
      </trkpt>
      <trkpt lat="44.2404" lon="4.45841">
        <ele>107</ele>
        <time>2021-07-04T14:45:43Z</time>
      </trkpt>
      <trkpt lat="44.24048" lon="4.45784">
        <ele>111</ele>
        <time>2021-07-04T14:45:53Z</time>
      </trkpt>
      <trkpt lat="44.24044" lon="4.45728">
        <ele>115</ele>
        <time>2021-07-04T14:46:02Z</time>
      </trkpt>
      <trkpt lat="44.24025" lon="4.45713">
        <ele>117</ele>
        <time>2021-07-04T14:46:07Z</time>
      </trkpt>
      <trkpt lat="44.23976" lon="4.45724">
        <ele>118</ele>
        <time>2021-07-04T14:46:19Z</time>
      </trkpt>
      <trkpt lat="44.23912" lon="4.45783">
        <ele>116</ele>
        <time>2021-07-04T14:46:37Z</time>
      </trkpt>
      <trkpt lat="44.24001" lon="4.45843">
        <ele>109</ele>
        <time>2021-07-04T14:47:00Z</time>
      </trkpt>
      <trkpt lat="44.24002" lon="4.45932">
        <ele>106</ele>
        <time>2021-07-04T14:47:15Z</time>
      </trkpt>
      <trkpt lat="44.24017" lon="4.45999">
        <ele>106</ele>
        <time>2021-07-04T14:47:26Z</time>
      </trkpt>
      <trkpt lat="44.23911" lon="4.46188">
        <ele>114</ele>
        <time>2021-07-04T14:48:07Z</time>
      </trkpt>
      <trkpt lat="44.23985" lon="4.46272">
        <ele>117</ele>
        <time>2021-07-04T14:48:29Z</time>
      </trkpt>
      <trkpt lat="44.23992" lon="4.46344">
        <ele>121</ele>
        <time>2021-07-04T14:48:41Z</time>
      </trkpt>
      <trkpt lat="44.23977" lon="4.46553">
        <ele>131</ele>
        <time>2021-07-04T14:49:16Z</time>
      </trkpt>
      <trkpt lat="44.23972" lon="4.46589">
        <ele>133</ele>
        <time>2021-07-04T14:49:22Z</time>
      </trkpt>
      <trkpt lat="44.24001" lon="4.46629">
        <ele>134</ele>
        <time>2021-07-04T14:49:32Z</time>
      </trkpt>
      <trkpt lat="44.23941" lon="4.47005">
        <ele>131</ele>
        <time>2021-07-04T14:50:36Z</time>
      </trkpt>
      <trkpt lat="44.23915" lon="4.47247">
        <ele>137</ele>
        <time>2021-07-04T14:51:17Z</time>
      </trkpt>
      <trkpt lat="44.23977" lon="4.47285">
        <ele>141</ele>
        <time>2021-07-04T14:51:33Z</time>
      </trkpt>
      <trkpt lat="44.23997" lon="4.47454">
        <ele>148</ele>
        <time>2021-07-04T14:52:02Z</time>
      </trkpt>
      <trkpt lat="44.23977" lon="4.47688">
        <ele>158</ele>
        <time>2021-07-04T14:52:41Z</time>
      </trkpt>
      <trkpt lat="44.23976" lon="4.47885">
        <ele>170</ele>
        <time>2021-07-04T14:53:14Z</time>
      </trkpt>
      <trkpt lat="44.24025" lon="4.47949">
        <ele>179</ele>
        <time>2021-07-04T14:53:30Z</time>
      </trkpt>
      <trkpt lat="44.24018" lon="4.48125">
        <ele>186</ele>
        <time>2021-07-04T14:53:59Z</time>
      </trkpt>
      <trkpt lat="44.24065" lon="4.48321">
        <ele>186</ele>
        <time>2021-07-04T14:54:34Z</time>
      </trkpt>
      <trkpt lat="44.24058" lon="4.48367">
        <ele>178</ele>
        <time>2021-07-04T14:54:42Z</time>
      </trkpt>
      <trkpt lat="44.24102" lon="4.48598">
        <ele>171</ele>
        <time>2021-07-04T14:55:22Z</time>
      </trkpt>
      <trkpt lat="44.24144" lon="4.4864">
        <ele>175</ele>
        <time>2021-07-04T14:55:34Z</time>
      </trkpt>
      <trkpt lat="44.24191" lon="4.48706">
        <ele>180</ele>
        <time>2021-07-04T14:55:49Z</time>
      </trkpt>
      <trkpt lat="44.24156" lon="4.48709">
        <ele>172</ele>
        <time>2021-07-04T14:55:58Z</time>
      </trkpt>
      <trkpt lat="44.24102" lon="4.48718">
        <ele>162</ele>
        <time>2021-07-04T14:56:10Z</time>
      </trkpt>
      <trkpt lat="44.24154" lon="4.48891">
        <ele>171</ele>
        <time>2021-07-04T14:56:42Z</time>
      </trkpt>
      <trkpt lat="44.2413" lon="4.48899">
        <ele>169</ele>
        <time>2021-07-04T14:56:47Z</time>
      </trkpt>
      <trkpt lat="44.24171" lon="4.49015">
        <ele>182</ele>
        <time>2021-07-04T14:57:09Z</time>
      </trkpt>
      <trkpt lat="44.24131" lon="4.49103">
        <ele>185</ele>
        <time>2021-07-04T14:57:26Z</time>
      </trkpt>
      <trkpt lat="44.24129" lon="4.49123">
        <ele>187</ele>
        <time>2021-07-04T14:57:30Z</time>
      </trkpt>
      <trkpt lat="44.24054" lon="4.4914">
        <ele>181</ele>
        <time>2021-07-04T14:57:48Z</time>
      </trkpt>
      <trkpt lat="44.2401" lon="4.49206">
        <ele>183</ele>
        <time>2021-07-04T14:58:03Z</time>
      </trkpt>
      <trkpt lat="44.23966" lon="4.49246">
        <ele>185</ele>
        <time>2021-07-04T14:58:15Z</time>
      </trkpt>
      <trkpt lat="44.23921" lon="4.49206">
        <ele>183</ele>
        <time>2021-07-04T14:58:27Z</time>
      </trkpt>
      <trkpt lat="44.239" lon="4.49154">
        <ele>180</ele>
        <time>2021-07-04T14:58:37Z</time>
      </trkpt>
      <trkpt lat="44.23844" lon="4.49127">
        <ele>180</ele>
        <time>2021-07-04T14:58:51Z</time>
      </trkpt>
      <trkpt lat="44.23804" lon="4.4892">
        <ele>174</ele>
        <time>2021-07-04T14:59:27Z</time>
      </trkpt>
      <trkpt lat="44.2373" lon="4.48912">
        <ele>180</ele>
        <time>2021-07-04T14:59:44Z</time>
      </trkpt>
      <trkpt lat="44.2362" lon="4.48629">
        <ele>177</ele>
        <time>2021-07-04T15:00:38Z</time>
      </trkpt>
      <trkpt lat="44.23524" lon="4.48498">
        <ele>174</ele>
        <time>2021-07-04T15:01:10Z</time>
      </trkpt>
      <trkpt lat="44.23493" lon="4.48476">
        <ele>170</ele>
        <time>2021-07-04T15:01:18Z</time>
      </trkpt>
      <trkpt lat="44.23397" lon="4.48622">
        <ele>171</ele>
        <time>2021-07-04T15:01:51Z</time>
      </trkpt>
      <trkpt lat="44.23315" lon="4.48714">
        <ele>161</ele>
        <time>2021-07-04T15:02:15Z</time>
      </trkpt>
      <trkpt lat="44.23389" lon="4.48551">
        <ele>162</ele>
        <time>2021-07-04T15:02:48Z</time>
      </trkpt>
      <trkpt lat="44.23261" lon="4.48515">
        <ele>148</ele>
        <time>2021-07-04T15:03:18Z</time>
      </trkpt>
      <trkpt lat="44.2316" lon="4.48436">
        <ele>150</ele>
        <time>2021-07-04T15:03:45Z</time>
      </trkpt>
      <trkpt lat="44.23047" lon="4.4861">
        <ele>146</ele>
        <time>2021-07-04T15:04:25Z</time>
      </trkpt>
      <trkpt lat="44.22932" lon="4.48645">
        <ele>141</ele>
        <time>2021-07-04T15:04:52Z</time>
      </trkpt>
      <trkpt lat="44.22905" lon="4.48677">
        <ele>140</ele>
        <time>2021-07-04T15:05:00Z</time>
      </trkpt>
      <trkpt lat="44.22919" lon="4.48766">
        <ele>142</ele>
        <time>2021-07-04T15:05:16Z</time>
      </trkpt>
      <trkpt lat="44.22897" lon="4.48861">
        <ele>139</ele>
        <time>2021-07-04T15:05:32Z</time>
      </trkpt>
      <trkpt lat="44.22859" lon="4.48924">
        <ele>137</ele>
        <time>2021-07-04T15:05:46Z</time>
      </trkpt>
      <trkpt lat="44.22791" lon="4.48977">
        <ele>139</ele>
        <time>2021-07-04T15:06:04Z</time>
      </trkpt>
      <trkpt lat="44.22705" lon="4.49001">
        <ele>141</ele>
        <time>2021-07-04T15:06:25Z</time>
      </trkpt>
      <trkpt lat="44.22657" lon="4.4903">
        <ele>146</ele>
        <time>2021-07-04T15:06:37Z</time>
      </trkpt>
      <trkpt lat="44.22636" lon="4.49009">
        <ele>146</ele>
        <time>2021-07-04T15:06:43Z</time>
      </trkpt>
      <trkpt lat="44.22628" lon="4.48938">
        <ele>143</ele>
        <time>2021-07-04T15:06:55Z</time>
      </trkpt>
      <trkpt lat="44.22557" lon="4.48876">
        <ele>154</ele>
        <time>2021-07-04T15:07:15Z</time>
      </trkpt>
      <trkpt lat="44.22525" lon="4.48838">
        <ele>159</ele>
        <time>2021-07-04T15:07:24Z</time>
      </trkpt>
      <trkpt lat="44.22537" lon="4.48752">
        <ele>160</ele>
        <time>2021-07-04T15:07:39Z</time>
      </trkpt>
      <trkpt lat="44.22557" lon="4.48612">
        <ele>149</ele>
        <time>2021-07-04T15:08:03Z</time>
      </trkpt>
      <trkpt lat="44.22527" lon="4.48511">
        <ele>143</ele>
        <time>2021-07-04T15:08:21Z</time>
      </trkpt>
      <trkpt lat="44.22481" lon="4.48479">
        <ele>138</ele>
        <time>2021-07-04T15:08:33Z</time>
      </trkpt>
      <trkpt lat="44.22414" lon="4.48561">
        <ele>141</ele>
        <time>2021-07-04T15:08:54Z</time>
      </trkpt>
      <trkpt lat="44.22333" lon="4.48724">
        <ele>132</ele>
        <time>2021-07-04T15:09:27Z</time>
      </trkpt>
      <trkpt lat="44.22293" lon="4.4876">
        <ele>132</ele>
        <time>2021-07-04T15:09:38Z</time>
      </trkpt>
      <trkpt lat="44.22239" lon="4.48739">
        <ele>124</ele>
        <time>2021-07-04T15:09:51Z</time>
      </trkpt>
      <trkpt lat="44.22202" lon="4.48704">
        <ele>115</ele>
        <time>2021-07-04T15:10:02Z</time>
      </trkpt>
      <trkpt lat="44.22056" lon="4.48734">
        <ele>109</ele>
        <time>2021-07-04T15:10:36Z</time>
      </trkpt>
      <trkpt lat="44.21948" lon="4.48783">
        <ele>102</ele>
        <time>2021-07-04T15:11:03Z</time>
      </trkpt>
      <trkpt lat="44.21897" lon="4.48812">
        <ele>98</ele>
        <time>2021-07-04T15:11:16Z</time>
      </trkpt>
      <trkpt lat="44.21866" lon="4.48744">
        <ele>92</ele>
        <time>2021-07-04T15:11:29Z</time>
      </trkpt>
      <trkpt lat="44.21876" lon="4.4867">
        <ele>90</ele>
        <time>2021-07-04T15:11:42Z</time>
      </trkpt>
      <trkpt lat="44.21823" lon="4.48649">
        <ele>92</ele>
        <time>2021-07-04T15:11:55Z</time>
      </trkpt>
      <trkpt lat="44.21807" lon="4.48598">
        <ele>90</ele>
        <time>2021-07-04T15:12:04Z</time>
      </trkpt>
      <trkpt lat="44.21821" lon="4.48562">
        <ele>88</ele>
        <time>2021-07-04T15:12:11Z</time>
      </trkpt>
    </trkseg>
  </trk>
</gpx>